createdAt,value
2018-08-22T00:01:34.407Z,26.30
2018-08-22T00:04:03.798Z,26.30
2018-08-22T00:06:33.264Z,26.40
2018-08-22T00:09:02.047Z,26.20
2018-08-22T00:11:31.574Z,26.20
2018-08-22T00:14:00.488Z,26.00
2018-08-22T00:16:29.333Z,26.00
2018-08-22T00:18:58.148Z,26.00
2018-08-22T00:21:28.375Z,26.00
2018-08-22T00:23:57.647Z,26.10
2018-08-22T00:26:26.342Z,26.20
2018-08-22T00:28:55.263Z,26.20
2018-08-22T00:31:24.122Z,26.30
2018-08-22T00:33:55.081Z,26.30
2018-08-22T00:36:24.628Z,26.30
2018-08-22T00:38:53.657Z,26.40
2018-08-22T00:41:22.583Z,26.40
2018-08-22T00:43:51.944Z,26.40
2018-08-22T00:46:20.741Z,26.30
2018-08-22T00:48:49.572Z,26.30
2018-08-22T00:51:18.460Z,26.30
2018-08-22T00:53:47.724Z,26.30
2018-08-22T00:56:19.302Z,26.30
2018-08-22T00:58:48.084Z,26.30
2018-08-22T01:01:17.509Z,26.30
2018-08-22T01:03:46.261Z,26.10
2018-08-22T01:06:16.673Z,26.00
2018-08-22T01:08:46.332Z,26.00
2018-08-22T01:11:15.317Z,26.10
2018-08-22T01:13:44.733Z,26.10
2018-08-22T01:16:14.432Z,26.10
2018-08-22T01:18:43.076Z,26.20
2018-08-22T01:21:12.400Z,26.20
2018-08-22T01:23:41.393Z,26.20
2018-08-22T01:26:10.541Z,26.20
2018-08-22T01:28:40.785Z,26.20
2018-08-22T01:31:09.737Z,26.20
2018-08-22T01:33:38.949Z,26.20
2018-08-22T01:36:08.315Z,26.20
2018-08-22T01:38:38.156Z,26.20
2018-08-22T01:41:07.634Z,26.00
2018-08-22T01:43:36.744Z,25.90
2018-08-22T01:46:05.564Z,25.60
2018-08-22T01:48:34.494Z,25.60
2018-08-22T01:51:03.863Z,25.60
2018-08-22T01:53:32.649Z,25.60
2018-08-22T01:56:01.824Z,25.70
2018-08-22T01:58:31.443Z,25.70
2018-08-22T02:01:00.677Z,25.80
2018-08-22T02:03:30.365Z,25.60
2018-08-22T02:05:59.144Z,25.40
2018-08-22T02:08:28.013Z,25.50
2018-08-22T02:10:56.816Z,25.60
2018-08-22T02:13:25.811Z,25.60
2018-08-22T02:15:55.735Z,25.60
2018-08-22T02:18:24.632Z,25.50
2018-08-22T02:20:53.396Z,25.30
2018-08-22T02:23:22.262Z,25.40
2018-08-22T02:25:52.033Z,25.40
2018-08-22T02:28:20.873Z,25.40
2018-08-22T02:30:50.206Z,25.40
2018-08-22T02:33:19.095Z,25.40
2018-08-22T02:35:47.944Z,25.50
2018-08-22T02:38:22.415Z,25.50
2018-08-22T02:40:51.606Z,25.50
2018-08-22T02:43:21.244Z,25.40
2018-08-22T02:45:50.006Z,25.40
2018-08-22T02:48:19.511Z,25.40
2018-08-22T02:50:48.151Z,25.40
2018-08-22T02:53:16.909Z,25.50
2018-08-22T02:55:46.667Z,25.50
2018-08-22T02:58:15.584Z,25.50
2018-08-22T03:00:45.101Z,25.60
2018-08-22T03:03:14.088Z,25.50
2018-08-22T03:05:47.753Z,25.40
2018-08-22T03:08:16.569Z,25.40
2018-08-22T03:10:45.882Z,25.30
2018-08-22T03:13:14.767Z,25.40
2018-08-22T03:15:43.709Z,25.40
2018-08-22T03:18:13.064Z,25.50
2018-08-22T03:20:42.096Z,25.50
2018-08-22T03:23:10.802Z,25.50
2018-08-22T03:25:40.687Z,25.50
2018-08-22T03:28:09.967Z,25.60
2018-08-22T03:30:39.357Z,25.50
2018-08-22T03:33:08.196Z,25.40
2018-08-22T03:35:37.669Z,25.40
2018-08-22T03:38:06.555Z,25.40
2018-08-22T03:40:36.161Z,25.40
2018-08-22T03:43:06.698Z,25.40
2018-08-22T03:45:35.325Z,25.50
2018-08-22T03:48:04.280Z,25.50
2018-08-22T03:50:33.884Z,25.50
2018-08-22T03:53:03.465Z,25.40
2018-08-22T03:55:33.036Z,25.40
2018-08-22T03:58:02.631Z,25.40
2018-08-22T04:00:32.177Z,25.40
2018-08-22T04:03:01.219Z,25.30
2018-08-22T04:05:30.097Z,25.20
2018-08-22T04:07:58.853Z,25.20
2018-08-22T04:10:28.630Z,25.20
2018-08-22T04:12:57.657Z,25.20
2018-08-22T04:15:26.574Z,25.20
2018-08-22T04:17:56.064Z,25.20
2018-08-22T04:20:26.180Z,25.20
2018-08-22T04:22:56.210Z,25.20
2018-08-22T04:25:25.646Z,25.20
2018-08-22T04:27:54.658Z,25.30
2018-08-22T04:30:23.592Z,25.30
2018-08-22T04:32:52.463Z,25.10
2018-08-22T04:35:21.272Z,25.00
2018-08-22T04:37:50.454Z,24.90
2018-08-22T04:40:19.465Z,24.90
2018-08-22T04:42:48.489Z,24.80
2018-08-22T04:45:17.363Z,24.70
2018-08-22T04:47:46.280Z,24.60
2018-08-22T04:50:14.928Z,24.60
2018-08-22T04:52:44.579Z,24.70
2018-08-22T04:55:13.349Z,24.70
2018-08-22T04:57:42.322Z,24.70
2018-08-22T05:00:11.394Z,24.70
2018-08-22T05:02:40.130Z,24.80
2018-08-22T05:05:09.529Z,24.90
2018-08-22T05:07:38.246Z,24.90
2018-08-22T05:10:07.237Z,24.80
2018-08-22T05:12:36.974Z,24.90
2018-08-22T05:15:05.829Z,25.00
2018-08-22T05:17:35.373Z,25.00
2018-08-22T05:20:04.374Z,25.10
2018-08-22T05:22:33.915Z,25.20
2018-08-22T05:25:03.489Z,25.30
2018-08-22T05:27:32.111Z,25.40
2018-08-22T05:30:01.093Z,25.40
2018-08-22T05:32:30.004Z,25.40
2018-08-22T05:34:58.873Z,25.40
2018-08-22T05:37:27.822Z,25.40
2018-08-22T05:39:56.773Z,25.40
2018-08-22T05:42:25.573Z,25.40
2018-08-22T05:44:54.373Z,25.50
2018-08-22T05:47:23.332Z,25.40
2018-08-22T05:49:52.820Z,25.50
2018-08-22T05:52:22.280Z,25.60
2018-08-22T05:54:51.485Z,25.60
2018-08-22T05:57:20.904Z,25.60
2018-08-22T05:59:49.987Z,25.60
2018-08-22T06:02:18.998Z,25.70
2018-08-22T06:04:49.255Z,25.70
2018-08-22T06:07:18.146Z,25.80
2018-08-22T06:09:47.557Z,25.90
2018-08-22T06:12:16.376Z,25.90
2018-08-22T06:14:45.600Z,26.00
2018-08-22T06:17:15.033Z,26.00
2018-08-22T06:19:44.016Z,26.00
2018-08-22T06:22:13.357Z,26.00
2018-08-22T06:24:41.990Z,26.00
2018-08-22T06:27:10.956Z,26.00
2018-08-22T06:29:39.848Z,26.10
2018-08-22T06:32:08.708Z,26.10
2018-08-22T06:34:37.691Z,26.10
2018-08-22T06:37:06.838Z,26.10
2018-08-22T06:39:36.138Z,26.10
2018-08-22T06:42:05.005Z,26.20
2018-08-22T06:44:34.998Z,26.20
2018-08-22T06:47:03.812Z,26.20
2018-08-22T06:49:33.469Z,26.30
2018-08-22T06:52:02.929Z,26.30
2018-08-22T06:54:31.806Z,26.40
2018-08-22T06:57:00.508Z,26.40
2018-08-22T06:59:29.370Z,26.40
2018-08-22T07:01:58.079Z,26.50
2018-08-22T07:04:27.500Z,26.50
2018-08-22T07:06:56.445Z,26.50
2018-08-22T07:09:25.318Z,26.60
2018-08-22T07:11:54.383Z,26.60
2018-08-22T07:14:23.161Z,26.70
2018-08-22T07:16:52.643Z,26.70
2018-08-22T07:19:21.639Z,26.80
2018-08-22T07:21:50.989Z,26.80
2018-08-22T07:24:20.477Z,26.80
2018-08-22T07:26:49.245Z,26.90
2018-08-22T07:29:18.360Z,26.90
2018-08-22T07:31:47.221Z,27.00
2018-08-22T07:34:16.742Z,27.00
2018-08-22T07:36:45.920Z,27.00
2018-08-22T07:39:14.770Z,27.10
2018-08-22T07:41:43.553Z,27.10
2018-08-22T07:44:12.401Z,27.10
2018-08-22T07:46:41.130Z,27.20
2018-08-22T07:49:09.996Z,27.20
2018-08-22T07:51:38.806Z,27.20
2018-08-22T07:54:07.927Z,27.30
2018-08-22T07:56:37.604Z,27.30
2018-08-22T07:59:13.720Z,27.40
2018-08-22T08:01:42.659Z,27.40
2018-08-22T08:04:13.147Z,27.50
2018-08-22T08:06:42.145Z,27.50
2018-08-22T08:09:13.211Z,27.50
2018-08-22T08:11:41.877Z,27.50
2018-08-22T08:14:10.937Z,27.60
2018-08-22T08:16:39.693Z,27.60
2018-08-22T08:19:09.082Z,27.60
2018-08-22T08:21:38.590Z,27.70
2018-08-22T08:24:07.728Z,27.70
2018-08-22T08:26:40.861Z,27.80
2018-08-22T08:29:09.671Z,27.80
2018-08-22T08:31:38.536Z,27.80
2018-08-22T08:34:07.479Z,27.80
2018-08-22T08:36:41.069Z,27.90
2018-08-22T08:39:11.216Z,27.90
2018-08-22T08:41:40.119Z,28.00
2018-08-22T08:44:10.064Z,28.00
2018-08-22T08:46:39.194Z,28.00
2018-08-22T08:49:08.017Z,28.10
2018-08-22T08:51:41.532Z,28.20
2018-08-22T08:54:10.974Z,28.20
2018-08-22T08:56:40.800Z,28.30
2018-08-22T08:59:09.835Z,28.30
2018-08-22T09:01:38.578Z,28.40
2018-08-22T09:04:07.347Z,28.40
2018-08-22T09:06:36.489Z,28.50
2018-08-22T09:09:08.460Z,28.50
2018-08-22T09:11:39.643Z,28.60
2018-08-22T09:14:08.473Z,28.70
2018-08-22T09:16:37.529Z,28.80
2018-08-22T09:19:06.561Z,28.90
2018-08-22T09:21:35.928Z,29.00
2018-08-22T09:24:04.678Z,29.00
2018-08-22T09:26:33.353Z,29.10
2018-08-22T09:29:02.258Z,29.20
2018-08-22T09:31:31.222Z,29.20
2018-08-22T09:34:01.026Z,29.30
2018-08-22T09:36:29.914Z,29.30
2018-08-22T09:38:58.885Z,29.40
2018-08-22T09:41:27.683Z,29.50
2018-08-22T09:43:56.624Z,29.50
2018-08-22T09:46:25.521Z,29.60
2018-08-22T09:48:54.368Z,29.70
2018-08-22T09:51:23.290Z,29.70
2018-08-22T09:53:53.772Z,29.80
2018-08-22T09:56:23.428Z,29.80
2018-08-22T09:58:52.567Z,29.90
2018-08-22T10:01:22.628Z,30.00
2018-08-22T10:03:56.219Z,30.00
2018-08-22T10:06:35.763Z,30.10
2018-08-22T10:09:08.582Z,30.20
2018-08-22T10:11:37.533Z,30.30
2018-08-22T10:14:06.476Z,30.30
2018-08-22T10:16:35.924Z,30.30
2018-08-22T10:19:04.886Z,30.40
2018-08-22T10:21:38.237Z,30.50
2018-08-22T10:24:07.183Z,30.50
2018-08-22T10:26:37.695Z,30.60
2018-08-22T10:29:07.192Z,30.70
2018-08-22T10:31:36.756Z,30.70
2018-08-22T10:34:05.658Z,30.80
2018-08-22T10:36:35.291Z,30.80
2018-08-22T10:39:06.844Z,30.90
2018-08-22T10:41:36.470Z,30.90
2018-08-22T10:44:05.516Z,31.00
2018-08-22T10:46:34.734Z,31.10
2018-08-22T10:49:04.026Z,31.10
2018-08-22T10:51:33.190Z,31.10
2018-08-22T10:54:02.596Z,31.00
2018-08-22T10:56:31.968Z,31.10
2018-08-22T10:59:00.794Z,31.20
2018-08-22T11:01:29.989Z,31.30
2018-08-22T11:03:58.917Z,31.30
2018-08-22T11:06:27.537Z,31.50
2018-08-22T11:08:56.381Z,31.50
2018-08-22T11:11:25.225Z,31.60
2018-08-22T11:13:55.102Z,31.70
2018-08-22T11:16:23.994Z,31.70
2018-08-22T11:18:53.393Z,31.80
2018-08-22T11:21:33.076Z,31.90
2018-08-22T11:24:13.102Z,31.90
2018-08-22T11:26:52.847Z,32.00
2018-08-22T11:29:33.345Z,32.00
2018-08-22T11:32:13.393Z,32.10
2018-08-22T11:34:49.903Z,32.20
2018-08-22T11:37:19.081Z,32.20
2018-08-22T11:39:49.670Z,32.30
2018-08-22T11:42:20.526Z,32.40
2018-08-22T11:44:50.243Z,32.40
2018-08-22T11:47:19.159Z,32.40
2018-08-22T11:49:47.950Z,32.50
2018-08-22T11:52:17.329Z,32.60
2018-08-22T11:54:45.985Z,32.60
2018-08-22T11:57:15.252Z,32.70
2018-08-22T11:59:43.918Z,32.80
2018-08-22T12:02:12.766Z,32.80
2018-08-22T12:04:42.301Z,32.90
2018-08-22T12:07:10.959Z,33.00
2018-08-22T12:09:39.669Z,33.00
2018-08-22T12:12:08.393Z,33.00
2018-08-22T12:14:37.173Z,33.10
2018-08-22T12:17:05.914Z,33.20
2018-08-22T12:19:35.254Z,33.20
2018-08-22T12:22:03.868Z,33.30
2018-08-22T12:24:32.585Z,33.40
2018-08-22T12:27:01.259Z,33.40
2018-08-22T12:29:29.924Z,33.50
2018-08-22T12:31:58.933Z,33.50
2018-08-22T12:34:27.611Z,33.60
2018-08-22T12:36:56.408Z,33.70
2018-08-22T12:39:25.110Z,33.70
2018-08-22T12:41:53.797Z,33.80
2018-08-22T12:44:22.504Z,33.90
2018-08-22T12:46:51.149Z,34.00
2018-08-22T12:49:19.798Z,34.00
2018-08-22T12:51:50.783Z,34.10
2018-08-22T12:54:19.440Z,34.10
2018-08-22T12:56:48.120Z,34.10
2018-08-22T12:59:16.861Z,34.20
2018-08-22T13:01:45.567Z,34.30
2018-08-22T13:04:14.300Z,34.40
2018-08-22T13:06:43.041Z,34.40
2018-08-22T13:09:12.079Z,34.40
2018-08-22T13:11:41.125Z,34.50
2018-08-22T13:14:09.832Z,34.60
2018-08-22T13:16:38.530Z,34.60
2018-08-22T13:19:07.254Z,34.60
2018-08-22T13:21:37.356Z,34.60
2018-08-22T13:24:06.088Z,34.60
2018-08-22T13:26:35.349Z,34.70
2018-08-22T13:29:04.076Z,34.80
2018-08-22T13:31:32.804Z,34.90
2018-08-22T13:34:01.466Z,35.00
2018-08-22T13:36:30.135Z,35.00
2018-08-22T13:38:58.796Z,35.10
2018-08-22T13:41:27.591Z,35.20
2018-08-22T13:43:56.350Z,35.20
2018-08-22T13:46:25.067Z,35.30
2018-08-22T13:48:53.886Z,35.40
2018-08-22T13:51:22.557Z,35.40
2018-08-22T13:53:51.216Z,35.50
2018-08-22T13:56:20.298Z,35.50
2018-08-22T13:58:48.981Z,35.60
2018-08-22T14:01:17.803Z,35.50
2018-08-22T14:03:46.575Z,35.60
2018-08-22T14:06:15.279Z,35.70
2018-08-22T14:08:44.010Z,35.70
2018-08-22T14:11:12.718Z,35.70
2018-08-22T14:13:41.452Z,35.80
2018-08-22T14:16:10.176Z,35.80
2018-08-22T14:18:38.850Z,35.90
2018-08-22T14:21:07.541Z,35.90
2018-08-22T14:23:37.291Z,36.00
2018-08-22T14:26:06.265Z,36.00
2018-08-22T14:28:35.916Z,36.00
2018-08-22T14:31:04.659Z,36.00
2018-08-22T14:33:33.362Z,36.00
2018-08-22T14:36:02.064Z,35.90
2018-08-22T14:38:30.793Z,35.90
2018-08-22T14:40:59.441Z,35.80
2018-08-22T14:43:28.203Z,35.70
2018-08-22T14:45:56.971Z,35.60
2018-08-22T14:48:26.302Z,35.50
2018-08-22T14:50:54.992Z,35.50
2018-08-22T14:53:23.644Z,35.40
2018-08-22T14:55:52.504Z,35.30
2018-08-22T14:58:21.079Z,35.30
2018-08-22T15:00:49.789Z,35.20
2018-08-22T15:03:19.037Z,35.20
2018-08-22T15:05:48.073Z,35.20
2018-08-22T15:08:16.726Z,35.10
2018-08-22T15:10:47.967Z,35.10
2018-08-22T15:13:16.714Z,35.10
2018-08-22T15:15:45.546Z,35.10
2018-08-22T15:18:14.524Z,35.10
2018-08-22T15:20:43.210Z,35.10
2018-08-22T15:23:11.930Z,35.10
2018-08-22T15:25:40.589Z,35.00
2018-08-22T15:28:09.289Z,35.00
2018-08-22T15:30:38.021Z,35.00
2018-08-22T15:33:06.750Z,35.00
2018-08-22T15:35:36.321Z,35.00
2018-08-22T15:38:05.113Z,35.00
2018-08-22T15:40:35.097Z,35.00
2018-08-22T15:43:03.793Z,35.10
2018-08-22T15:45:32.508Z,35.20
2018-08-22T15:48:01.232Z,35.20
2018-08-22T15:50:29.902Z,35.20
2018-08-22T15:52:58.686Z,35.30
2018-08-22T15:55:27.396Z,35.50
2018-08-22T15:58:02.897Z,35.60
2018-08-22T16:00:44.196Z,35.70
2018-08-22T16:03:12.877Z,35.80
2018-08-22T16:05:43.727Z,35.90
2018-08-22T16:08:13.131Z,36.00
2018-08-22T16:10:41.952Z,36.10
2018-08-22T16:13:27.996Z,36.20
2018-08-22T16:15:57.866Z,36.30
2018-08-22T16:18:26.497Z,36.30
2018-08-22T16:20:58.283Z,36.40
2018-08-22T16:23:28.575Z,36.50
2018-08-22T16:25:58.557Z,36.50
2018-08-22T16:28:28.057Z,36.50
2018-08-22T16:30:58.060Z,36.50
2018-08-22T16:33:26.714Z,36.50
2018-08-22T16:35:55.464Z,36.50
2018-08-22T16:38:24.144Z,36.50
2018-08-22T16:40:53.932Z,36.40
2018-08-22T16:43:39.100Z,36.40
2018-08-22T16:46:10.368Z,36.40
2018-08-22T16:48:39.878Z,36.40
2018-08-22T16:51:08.617Z,36.30
2018-08-22T16:53:37.293Z,36.30
2018-08-22T16:56:06.098Z,36.20
2018-08-22T16:58:34.787Z,36.10
2018-08-22T17:01:03.459Z,36.00
2018-08-22T17:03:32.139Z,35.90
2018-08-22T17:06:06.024Z,35.70
2018-08-22T17:08:35.073Z,35.40
2018-08-22T17:11:05.071Z,35.20
2018-08-22T17:13:45.246Z,35.10
2018-08-22T17:16:13.940Z,34.90
2018-08-22T17:18:43.234Z,34.70
2018-08-22T17:21:11.952Z,34.50
2018-08-22T17:23:41.119Z,34.30
2018-08-22T17:26:13.765Z,34.20
2018-08-22T17:28:44.569Z,34.00
2018-08-22T17:31:14.113Z,33.80
2018-08-22T17:33:43.967Z,33.70
2018-08-22T17:36:13.322Z,33.60
2018-08-22T17:38:45.325Z,33.50
2018-08-22T17:41:14.509Z,33.40
2018-08-22T17:43:55.049Z,33.30
2018-08-22T17:46:26.664Z,33.20
2018-08-22T17:48:55.461Z,33.10
2018-08-22T17:51:24.448Z,33.00
2018-08-22T17:53:53.145Z,32.90
2018-08-22T17:56:23.319Z,32.80
2018-08-22T17:58:53.114Z,32.70
2018-08-22T18:01:22.441Z,32.60
2018-08-22T18:03:54.825Z,32.60
2018-08-22T18:06:23.604Z,32.50
2018-08-22T18:08:52.936Z,32.50
2018-08-22T18:11:21.637Z,32.40
2018-08-22T18:13:50.334Z,32.30
2018-08-22T18:16:18.993Z,32.30
2018-08-22T18:18:49.992Z,32.20
2018-08-22T18:21:19.689Z,32.10
2018-08-22T18:23:53.361Z,32.10
2018-08-22T18:26:22.014Z,32.00
2018-08-22T18:28:50.713Z,32.00
2018-08-22T18:31:19.418Z,31.90
2018-08-22T18:34:00.582Z,31.90
2018-08-22T18:36:30.401Z,31.90
2018-08-22T18:39:02.836Z,31.80
2018-08-22T18:41:31.533Z,31.70
2018-08-22T18:44:00.537Z,31.60
2018-08-22T18:46:29.322Z,31.60
2018-08-22T18:48:58.156Z,31.50
2018-08-22T18:51:26.981Z,31.50
2018-08-22T18:53:55.693Z,31.40
2018-08-22T18:56:24.367Z,31.40
2018-08-22T18:58:53.129Z,31.40
2018-08-22T19:01:21.890Z,31.30
2018-08-22T19:03:50.553Z,31.30
2018-08-22T19:06:19.549Z,31.20
2018-08-22T19:08:48.249Z,31.20
2018-08-22T19:11:17.043Z,31.10
2018-08-22T19:13:45.769Z,31.10
2018-08-22T19:16:14.479Z,31.10
2018-08-22T19:18:43.188Z,31.10
2018-08-22T19:21:12.089Z,31.00
2018-08-22T19:23:40.876Z,30.90
2018-08-22T19:26:09.584Z,31.00
2018-08-22T19:29:04.677Z,30.90
2018-08-22T19:31:33.500Z,30.90
2018-08-22T19:34:02.188Z,30.80
2018-08-22T19:36:30.865Z,30.80
2018-08-22T19:38:59.559Z,30.80
2018-08-22T19:41:32.389Z,30.70
2018-08-22T19:44:01.209Z,30.60
2018-08-22T19:46:29.910Z,30.60
2018-08-22T19:48:59.907Z,30.60
2018-08-22T19:51:28.648Z,30.60
2018-08-22T19:54:00.764Z,30.50
2018-08-22T19:56:30.061Z,30.50
2018-08-22T19:58:59.032Z,30.50
2018-08-22T20:01:30.770Z,30.40
2018-08-22T20:03:59.446Z,30.40
2018-08-22T20:06:28.250Z,30.30
2018-08-22T20:08:57.892Z,30.30
2018-08-22T20:11:27.083Z,30.30
2018-08-22T20:14:00.078Z,30.30
2018-08-22T20:16:28.942Z,30.20
2018-08-22T20:18:59.944Z,30.20
2018-08-22T20:21:38.697Z,30.10
2018-08-22T20:24:10.075Z,30.10
2018-08-22T20:26:43.423Z,30.10
2018-08-22T20:29:12.505Z,30.10
2018-08-22T20:31:41.244Z,30.10
2018-08-22T20:34:12.408Z,30.00
2018-08-22T20:36:43.335Z,30.00
2018-08-22T20:39:12.863Z,30.00
2018-08-22T20:41:42.195Z,29.90
2018-08-22T20:44:14.447Z,29.90
2018-08-22T20:46:46.081Z,29.90
2018-08-22T20:49:15.838Z,29.80
2018-08-22T20:51:44.636Z,29.80
2018-08-22T20:54:14.481Z,29.80
2018-08-22T20:56:48.876Z,29.80
2018-08-22T20:59:18.926Z,29.80
2018-08-22T21:01:52.969Z,29.70
2018-08-22T21:04:21.660Z,29.70
2018-08-22T21:06:50.409Z,29.70
2018-08-22T21:09:19.409Z,29.70
2018-08-22T21:11:48.444Z,29.60
2018-08-22T21:14:17.154Z,29.60
2018-08-22T21:16:45.894Z,29.60
2018-08-22T21:19:14.618Z,29.60
2018-08-22T21:21:43.313Z,29.50
2018-08-22T21:24:12.000Z,29.50
2018-08-22T21:26:42.265Z,29.50
2018-08-22T21:29:11.432Z,29.40
2018-08-22T21:31:40.118Z,29.40
2018-08-22T21:34:14.500Z,29.40
2018-08-22T21:36:44.790Z,29.40
2018-08-22T21:39:18.579Z,29.40
2018-08-22T21:41:47.914Z,29.30
2018-08-22T21:44:18.804Z,29.30
2018-08-22T21:46:57.494Z,29.20
2018-08-22T21:49:26.271Z,29.20
2018-08-22T21:51:57.100Z,29.20
2018-08-22T21:54:25.786Z,29.10
2018-08-22T21:56:54.576Z,29.10
2018-08-22T21:59:23.226Z,29.10
2018-08-22T22:01:57.550Z,29.00
2018-08-22T22:04:31.268Z,29.00
2018-08-22T22:07:00.685Z,29.00
2018-08-22T22:09:29.540Z,29.00
2018-08-22T22:11:59.343Z,29.00
2018-08-22T22:14:36.528Z,29.00
2018-08-22T22:17:06.106Z,29.00
2018-08-22T22:19:36.388Z,29.00
2018-08-22T22:22:05.392Z,29.00
2018-08-22T22:24:39.156Z,28.90
2018-08-22T22:27:08.975Z,28.90
2018-08-22T22:29:41.916Z,28.80
2018-08-22T22:32:10.648Z,28.80
2018-08-22T22:34:39.622Z,28.80
2018-08-22T22:37:08.321Z,28.80
2018-08-22T22:39:45.064Z,28.80
2018-08-22T22:42:19.110Z,28.70
2018-08-22T22:44:50.089Z,28.70
2018-08-22T22:47:24.142Z,28.70
2018-08-22T22:49:52.963Z,28.70
2018-08-22T22:52:41.065Z,28.70
2018-08-22T22:55:10.511Z,28.70
2018-08-22T22:57:40.585Z,28.70
2018-08-22T23:00:10.633Z,28.60
2018-08-22T23:02:39.753Z,28.70
2018-08-22T23:05:08.805Z,28.60
2018-08-22T23:07:39.293Z,28.60
2018-08-22T23:10:10.198Z,28.60
2018-08-22T23:12:40.291Z,28.50
2018-08-22T23:15:10.371Z,28.50
2018-08-22T23:17:39.506Z,28.40
2018-08-22T23:20:41.976Z,28.40
2018-08-22T23:23:26.629Z,28.40
2018-08-22T23:25:56.816Z,28.40
2018-08-22T23:28:25.542Z,28.40
2018-08-22T23:30:54.765Z,28.40
2018-08-22T23:33:23.501Z,28.30
2018-08-22T23:35:52.165Z,28.30
2018-08-22T23:38:27.046Z,28.30
2018-08-22T23:40:56.729Z,28.30
2018-08-22T23:43:25.481Z,28.20
2018-08-22T23:45:55.783Z,28.20
2018-08-22T23:48:29.664Z,28.20
2018-08-22T23:51:02.172Z,28.20
2018-08-22T23:53:37.982Z,28.20
2018-08-22T23:56:17.008Z,28.20
2018-08-22T23:58:46.761Z,28.20
